sensor_id;sensor_type;location;lat;lon;timestamp;P1;durP1;ratioP1;P2;durP2;ratioP2
35243;SDS011;37916;52.160;21.066;2022-12-29T00:07:53;9.73;;;4.63;;
35243;SDS011;37916;52.160;21.066;2022-12-29T00:17:53;10.07;;;4.78;;
35243;SDS011;37916;52.160;21.066;2022-12-29T00:27:54;8.98;;;4.97;;
35243;SDS011;37916;52.160;21.066;2022-12-29T00:38:14;9.77;;;4.30;;
35243;SDS011;37916;52.160;21.066;2022-12-29T00:48:33;8.65;;;4.72;;
35243;SDS011;37916;52.160;21.066;2022-12-29T00:58:52;8.25;;;4.05;;
35243;SDS011;37916;52.160;21.066;2022-12-29T01:08:52;9.50;;;3.65;;
35243;SDS011;37916;52.160;21.066;2022-12-29T01:19:12;10.18;;;4.00;;
35243;SDS011;37916;52.160;21.066;2022-12-29T01:29:12;6.88;;;3.72;;
35243;SDS011;37916;52.160;21.066;2022-12-29T01:39:13;7.35;;;3.65;;
35243;SDS011;37916;52.160;21.066;2022-12-29T01:49:18;8.95;;;3.78;;
35243;SDS011;37916;52.160;21.066;2022-12-29T01:59:30;7.95;;;3.40;;
35243;SDS011;37916;52.160;21.066;2022-12-29T02:09:34;6.55;;;3.17;;
35243;SDS011;37916;52.160;21.066;2022-12-29T02:30:05;6.47;;;2.80;;
35243;SDS011;37916;52.160;21.066;2022-12-29T02:50:22;8.60;;;3.20;;
35243;SDS011;37916;52.160;21.066;2022-12-29T03:00:27;6.97;;;3.13;;
35243;SDS011;37916;52.160;21.066;2022-12-29T03:30:53;6.35;;;3.20;;
35243;SDS011;37916;52.160;21.066;2022-12-29T03:40:58;5.90;;;3.07;;
35243;SDS011;37916;52.160;21.066;2022-12-29T03:51:00;6.13;;;3.50;;
35243;SDS011;37916;52.160;21.066;2022-12-29T04:01:01;8.20;;;3.65;;
35243;SDS011;37916;52.160;21.066;2022-12-29T04:11:02;9.30;;;4.00;;
35243;SDS011;37916;52.160;21.066;2022-12-29T04:21:03;8.65;;;4.35;;
35243;SDS011;37916;52.160;21.066;2022-12-29T04:31:04;9.27;;;4.63;;
35243;SDS011;37916;52.160;21.066;2022-12-29T04:41:05;8.70;;;5.00;;
35243;SDS011;37916;52.160;21.066;2022-12-29T04:51:06;11.15;;;6.07;;
35243;SDS011;37916;52.160;21.066;2022-12-29T05:01:07;10.57;;;5.10;;
35243;SDS011;37916;52.160;21.066;2022-12-29T05:11:08;12.63;;;5.38;;
35243;SDS011;37916;52.160;21.066;2022-12-29T05:21:08;11.27;;;4.82;;
35243;SDS011;37916;52.160;21.066;2022-12-29T05:31:09;12.57;;;5.40;;
35243;SDS011;37916;52.160;21.066;2022-12-29T05:41:10;10.05;;;5.18;;
35243;SDS011;37916;52.160;21.066;2022-12-29T05:51:11;10.00;;;5.13;;
35243;SDS011;37916;52.160;21.066;2022-12-29T06:01:11;10.35;;;4.97;;
35243;SDS011;37916;52.160;21.066;2022-12-29T06:11:12;12.68;;;4.82;;
35243;SDS011;37916;52.160;21.066;2022-12-29T06:21:13;9.45;;;4.53;;
35243;SDS011;37916;52.160;21.066;2022-12-29T06:31:13;10.55;;;4.03;;
35243;SDS011;37916;52.160;21.066;2022-12-29T06:41:14;10.68;;;4.13;;
35243;SDS011;37916;52.160;21.066;2022-12-29T06:51:15;6.95;;;4.07;;
35243;SDS011;37916;52.160;21.066;2022-12-29T07:01:16;7.20;;;4.28;;
35243;SDS011;37916;52.160;21.066;2022-12-29T07:11:16;7.75;;;4.22;;
35243;SDS011;37916;52.160;21.066;2022-12-29T07:21:17;8.57;;;3.90;;
35243;SDS011;37916;52.160;21.066;2022-12-29T07:31:19;8.35;;;3.97;;
35243;SDS011;37916;52.160;21.066;2022-12-29T07:41:21;8.52;;;4.35;;
35243;SDS011;37916;52.160;21.066;2022-12-29T07:51:22;8.65;;;3.67;;
35243;SDS011;37916;52.160;21.066;2022-12-29T08:01:22;8.77;;;4.22;;
35243;SDS011;37916;52.160;21.066;2022-12-29T08:11:23;8.35;;;3.47;;
35243;SDS011;37916;52.160;21.066;2022-12-29T08:21:24;8.88;;;3.55;;
35243;SDS011;37916;52.160;21.066;2022-12-29T08:31:26;6.10;;;3.42;;
35243;SDS011;37916;52.160;21.066;2022-12-29T08:41:27;6.85;;;3.45;;
35243;SDS011;37916;52.160;21.066;2022-12-29T08:51:28;6.97;;;3.53;;
35243;SDS011;37916;52.160;21.066;2022-12-29T09:01:29;5.82;;;2.60;;
35243;SDS011;37916;52.160;21.066;2022-12-29T09:11:30;6.63;;;3.38;;
35243;SDS011;37916;52.160;21.066;2022-12-29T09:21:31;9.70;;;3.70;;
35243;SDS011;37916;52.160;21.066;2022-12-29T09:31:32;7.50;;;3.60;;
35243;SDS011;37916;52.160;21.066;2022-12-29T09:41:37;6.72;;;3.50;;
35243;SDS011;37916;52.160;21.066;2022-12-29T09:51:48;8.80;;;3.23;;
35243;SDS011;37916;52.160;21.066;2022-12-29T10:01:54;6.90;;;3.50;;
35243;SDS011;37916;52.160;21.066;2022-12-29T10:32:45;6.95;;;3.72;;
35243;SDS011;37916;52.160;21.066;2022-12-29T10:52:58;9.35;;;3.78;;
35243;SDS011;37916;52.160;21.066;2022-12-29T11:13:49;8.63;;;3.97;;
35243;SDS011;37916;52.160;21.066;2022-12-29T11:23:58;9.00;;;4.72;;
35243;SDS011;37916;52.160;21.066;2022-12-29T11:34:06;7.85;;;4.18;;
35243;SDS011;37916;52.160;21.066;2022-12-29T11:44:11;6.45;;;3.67;;
35243;SDS011;37916;52.160;21.066;2022-12-29T11:54:18;9.85;;;3.88;;
35243;SDS011;37916;52.160;21.066;2022-12-29T12:04:30;10.27;;;3.95;;
35243;SDS011;37916;52.160;21.066;2022-12-29T12:14:45;6.82;;;3.80;;
35243;SDS011;37916;52.160;21.066;2022-12-29T12:25:01;8.23;;;4.28;;
35243;SDS011;37916;52.160;21.066;2022-12-29T12:35:13;9.57;;;4.93;;
35243;SDS011;37916;52.160;21.066;2022-12-29T13:37:47;7.63;;;4.22;;
35243;SDS011;37916;52.160;21.066;2022-12-29T14:08:28;9.32;;;4.05;;
35243;SDS011;37916;52.160;21.066;2022-12-29T14:18:34;7.45;;;3.85;;
35243;SDS011;37916;52.160;21.066;2022-12-29T14:28:45;7.85;;;4.70;;
35243;SDS011;37916;52.160;21.066;2022-12-29T14:38:47;8.63;;;4.60;;
35243;SDS011;37916;52.160;21.066;2022-12-29T14:48:52;10.38;;;5.07;;
35243;SDS011;37916;52.160;21.066;2022-12-29T14:59:01;9.13;;;4.40;;
35243;SDS011;37916;52.160;21.066;2022-12-29T15:09:05;9.15;;;4.88;;
35243;SDS011;37916;52.160;21.066;2022-12-29T15:19:24;8.77;;;4.30;;
35243;SDS011;37916;52.160;21.066;2022-12-29T15:29:38;7.60;;;4.47;;
35243;SDS011;37916;52.160;21.066;2022-12-29T15:39:41;9.25;;;5.25;;
35243;SDS011;37916;52.160;21.066;2022-12-29T15:49:42;7.95;;;4.22;;
35243;SDS011;37916;52.160;21.066;2022-12-29T15:59:45;8.80;;;4.93;;
35243;SDS011;37916;52.160;21.066;2022-12-29T16:09:53;7.82;;;4.65;;
35243;SDS011;37916;52.160;21.066;2022-12-29T16:19:59;9.75;;;4.43;;
35243;SDS011;37916;52.160;21.066;2022-12-29T16:40:32;8.27;;;4.63;;
35243;SDS011;37916;52.160;21.066;2022-12-29T16:50:37;9.57;;;4.60;;
35243;SDS011;37916;52.160;21.066;2022-12-29T17:00:39;10.80;;;4.80;;
35243;SDS011;37916;52.160;21.066;2022-12-29T17:10:42;8.32;;;4.18;;
35243;SDS011;37916;52.160;21.066;2022-12-29T17:21:01;7.32;;;4.18;;
35243;SDS011;37916;52.160;21.066;2022-12-29T17:31:03;7.18;;;4.13;;
35243;SDS011;37916;52.160;21.066;2022-12-29T17:41:10;8.60;;;4.33;;
35243;SDS011;37916;52.160;21.066;2022-12-29T17:51:13;7.30;;;4.57;;
35243;SDS011;37916;52.160;21.066;2022-12-29T18:01:14;10.48;;;5.75;;
35243;SDS011;37916;52.160;21.066;2022-12-29T18:11:23;11.90;;;5.10;;
35243;SDS011;37916;52.160;21.066;2022-12-29T18:21:25;10.40;;;5.35;;
35243;SDS011;37916;52.160;21.066;2022-12-29T18:31:27;10.60;;;6.07;;
35243;SDS011;37916;52.160;21.066;2022-12-29T18:41:29;12.20;;;5.50;;
35243;SDS011;37916;52.160;21.066;2022-12-29T18:51:37;10.98;;;5.78;;
35243;SDS011;37916;52.160;21.066;2022-12-29T19:01:38;15.63;;;6.78;;
35243;SDS011;37916;52.160;21.066;2022-12-29T19:11:39;12.15;;;6.65;;
35243;SDS011;37916;52.160;21.066;2022-12-29T19:21:43;12.65;;;6.88;;
35243;SDS011;37916;52.160;21.066;2022-12-29T19:31:46;12.60;;;6.88;;
35243;SDS011;37916;52.160;21.066;2022-12-29T19:41:52;17.25;;;7.40;;
35243;SDS011;37916;52.160;21.066;2022-12-29T19:51:54;12.55;;;7.93;;
35243;SDS011;37916;52.160;21.066;2022-12-29T20:01:57;14.33;;;6.73;;
35243;SDS011;37916;52.160;21.066;2022-12-29T20:11:58;12.75;;;7.07;;
35243;SDS011;37916;52.160;21.066;2022-12-29T20:22:10;12.48;;;6.40;;
35243;SDS011;37916;52.160;21.066;2022-12-29T20:32:12;15.25;;;7.95;;
35243;SDS011;37916;52.160;21.066;2022-12-29T20:42:20;12.15;;;7.28;;
35243;SDS011;37916;52.160;21.066;2022-12-29T20:52:26;12.82;;;7.03;;
35243;SDS011;37916;52.160;21.066;2022-12-29T21:02:27;13.15;;;6.65;;
35243;SDS011;37916;52.160;21.066;2022-12-29T21:12:28;12.13;;;6.25;;
35243;SDS011;37916;52.160;21.066;2022-12-29T21:22:29;13.15;;;6.60;;
35243;SDS011;37916;52.160;21.066;2022-12-29T21:32:29;11.65;;;6.50;;
35243;SDS011;37916;52.160;21.066;2022-12-29T21:42:30;16.25;;;6.78;;
35243;SDS011;37916;52.160;21.066;2022-12-29T21:52:32;10.68;;;6.18;;
35243;SDS011;37916;52.160;21.066;2022-12-29T22:02:33;12.25;;;6.53;;
35243;SDS011;37916;52.160;21.066;2022-12-29T22:12:52;12.40;;;6.50;;
35243;SDS011;37916;52.160;21.066;2022-12-29T22:23:18;12.60;;;6.40;;
35243;SDS011;37916;52.160;21.066;2022-12-29T22:33:19;11.45;;;5.97;;
35243;SDS011;37916;52.160;21.066;2022-12-29T22:43:20;13.73;;;6.63;;
35243;SDS011;37916;52.160;21.066;2022-12-29T22:53:20;11.35;;;6.32;;
35243;SDS011;37916;52.160;21.066;2022-12-29T23:03:21;11.98;;;6.47;;
35243;SDS011;37916;52.160;21.066;2022-12-29T23:13:27;16.52;;;6.88;;
35243;SDS011;37916;52.160;21.066;2022-12-29T23:23:30;11.13;;;6.70;;
35243;SDS011;37916;52.160;21.066;2022-12-29T23:33:50;10.80;;;6.60;;
35243;SDS011;37916;52.160;21.066;2022-12-29T23:43:51;13.90;;;6.82;;
35243;SDS011;37916;52.160;21.066;2022-12-29T23:53:54;13.43;;;7.25;;
